Time,TemperatureF,DewpointF,PressureIn,WindDirection,WindDirectionDegrees,WindSpeedMPH,WindSpeedGustMPH,Humidity,HourlyPrecipIn,Conditions,Clouds,dailyrainin,SoftwareType,DateUTC
2013-06-08 00:03:00,52.0,51.0,-100.00,NE,34,12.0,12.0,97,-99.99,,,-99.99,,2013-06-08 04:03:00,
2013-06-08 00:13:00,52.0,51.0,-100.00,NE,34,12.0,12.0,97,-99.99,,,-99.99,,2013-06-08 04:13:00,
2013-06-08 00:23:00,52.0,51.0,-100.00,NE,48,13.0,13.0,97,-99.99,,,-99.99,,2013-06-08 04:23:00,
2013-06-08 00:33:00,52.0,51.0,-100.00,NE,50,13.0,13.0,97,-99.99,,,-99.99,,2013-06-08 04:33:00,
2013-06-08 00:42:00,52.0,51.0,-100.00,NE,50,13.0,13.0,97,-99.99,,,-99.99,,2013-06-08 04:42:00,
2013-06-08 00:53:00,52.0,51.0,-100.00,NE,50,13.0,13.0,97,-99.99,,,-99.99,,2013-06-08 04:53:00,
2013-06-08 01:02:00,52.0,51.0,-100.00,NE,50,13.0,13.0,97,-99.99,,,-99.99,,2013-06-08 05:02:00,
2013-06-08 01:12:00,52.0,51.0,-100.00,NE,50,13.0,13.0,97,-99.99,,,-99.99,,2013-06-08 05:12:00,
2013-06-08 01:22:00,52.0,51.0,-100.00,NNE,22,12.0,13.0,97,-99.99,,,-99.99,,2013-06-08 05:22:00,
2013-06-08 01:32:00,51.0,50.0,-100.00,NNE,26,9.0,9.0,97,-99.99,,,-99.99,,2013-06-08 05:32:00,
2013-06-08 01:42:00,51.0,50.0,-100.00,NNE,26,9.0,9.0,97,-99.99,,,-99.99,,2013-06-08 05:42:00,
2013-06-08 01:52:00,51.0,50.0,-100.00,NNE,26,9.0,12.0,97,-99.99,,,-99.99,,2013-06-08 05:52:00,
2013-06-08 02:02:00,51.0,50.0,-100.00,NNE,26,9.0,12.0,97,-99.99,,,-99.99,,2013-06-08 06:02:00,
2013-06-08 02:13:00,51.0,50.0,-100.00,NNE,26,9.0,10.0,97,-99.99,,,-99.99,,2013-06-08 06:13:00,
2013-06-08 02:22:00,51.0,50.0,-100.00,NNE,26,9.0,13.0,97,-99.99,,,-99.99,,2013-06-08 06:22:00,
2013-06-08 02:32:00,51.0,50.0,-100.00,NE,44,13.0,-999.0,96,-99.99,,,-99.99,,2013-06-08 06:32:00,
2013-06-08 02:42:00,51.0,50.0,-100.00,NE,44,13.0,-999.0,96,-99.99,,,-99.99,,2013-06-08 06:42:00,
2013-06-08 02:52:00,51.0,50.0,-100.00,NE,44,13.0,-999.0,96,-99.99,,,-99.99,,2013-06-08 06:52:00,
2013-06-08 03:02:00,51.0,50.0,-100.00,NE,44,13.0,-999.0,96,-99.99,,,-99.99,,2013-06-08 07:02:00,
2013-06-08 03:12:00,51.0,50.0,-100.00,NE,44,13.0,-999.0,96,-99.99,,,-99.99,,2013-06-08 07:12:00,
2013-06-08 03:22:00,51.0,50.0,-100.00,NNW,348,9.0,-999.0,96,-99.99,,,-99.99,,2013-06-08 07:22:00,
2013-06-08 03:52:00,53.0,49.0,-100.00,North,5,3.0,-999.0,87,-99.99,,,-99.99,,2013-06-08 07:52:00,
2013-06-08 04:02:00,53.0,49.0,-100.00,NNE,15,5.0,-999.0,87,-99.99,,,-99.99,,2013-06-08 08:02:00,
2013-06-08 04:22:00,53.0,52.0,-100.00,NNW,330,3.0,8.0,97,-99.99,,,-99.99,,2013-06-08 08:22:00,
2013-06-08 04:32:00,53.0,52.0,-100.00,NNW,340,8.0,-999.0,97,-99.99,,,-99.99,,2013-06-08 08:32:00,
2013-06-08 04:42:00,53.0,52.0,-100.00,North,5,3.0,9.0,97,-99.99,,,-99.99,,2013-06-08 08:42:00,
2013-06-08 04:52:00,53.0,52.0,-100.00,NNW,340,6.0,8.0,97,-99.99,,,-99.99,,2013-06-08 08:52:00,
2013-06-08 05:02:00,53.0,52.0,-100.00,North,355,6.0,-999.0,97,-99.99,,,-99.99,,2013-06-08 09:02:00,
2013-06-08 05:10:00,53.0,52.0,-100.00,North,350,7.0,12.0,98,-99.99,,,-99.99,,2013-06-08 09:10:00,
2013-06-08 05:12:00,53.0,52.0,-100.00,North,350,6.0,10.0,97,-99.99,,,-99.99,,2013-06-08 09:12:00,
2013-06-08 05:22:00,53.0,52.0,-100.00,North,10,5.0,9.0,97,-99.99,,,-99.99,,2013-06-08 09:22:00,
2013-06-08 05:33:00,53.0,52.0,-100.00,NNW,335,7.0,13.0,97,-99.99,,,-99.99,,2013-06-08 09:33:00,
2013-06-08 05:43:00,53.0,52.0,-100.00,NNW,330,6.0,10.0,97,-99.99,,,-99.99,,2013-06-08 09:43:00,
2013-06-08 05:53:00,53.0,52.0,-100.00,North,350,7.0,12.0,98,-99.99,,,-99.99,,2013-06-08 09:53:00,
2013-06-08 06:03:00,53.0,52.0,-100.00,North,350,7.0,12.0,98,-99.99,,,-99.99,,2013-06-08 10:03:00,
2013-06-08 06:23:00,53.0,52.0,-100.00,NNE,20,6.0,13.0,98,-99.99,,,-99.99,,2013-06-08 10:23:00,
2013-06-08 06:33:00,53.0,52.0,-100.00,North,355,7.0,15.0,97,-99.99,,,-99.99,,2013-06-08 10:33:00,
2013-06-08 06:43:00,53.0,52.0,-100.00,North,355,7.0,15.0,97,-99.99,,,-99.99,,2013-06-08 10:43:00,
2013-06-08 06:52:00,53.0,52.0,-100.00,North,355,7.0,15.0,97,-99.99,,,-99.99,,2013-06-08 10:52:00,
2013-06-08 07:03:00,53.0,52.0,-100.00,NNW,340,6.0,14.0,98,-99.99,,,-99.99,,2013-06-08 11:03:00,
2013-06-08 07:12:00,53.0,53.0,-100.00,NNW,345,7.0,13.0,99,-99.99,,,-99.99,,2013-06-08 11:12:00,
2013-06-08 07:32:00,53.0,53.0,-100.00,NNW,330,9.0,15.0,98,-99.99,,,-99.99,,2013-06-08 11:32:00,
2013-06-08 07:42:00,54.0,53.0,-100.00,North,350,10.0,16.0,97,-99.99,,,-99.99,,2013-06-08 11:42:00,
2013-06-08 07:52:00,54.0,53.0,-100.00,NNW,345,7.0,14.0,98,-99.99,,,-99.99,,2013-06-08 11:52:00,
2013-06-08 08:02:00,54.0,53.0,-100.00,NNW,335,8.0,15.0,97,-99.99,,,-99.99,,2013-06-08 12:02:00,
2013-06-08 08:12:00,54.0,53.0,-100.00,NNW,345,6.0,14.0,98,-99.99,,,-99.99,,2013-06-08 12:12:00,
2013-06-08 08:22:00,54.0,53.0,-100.00,NW,325,9.0,15.0,98,-99.99,,,-99.99,,2013-06-08 12:22:00,
2013-06-08 08:52:00,55.0,54.0,-100.00,NNW,335,9.0,14.0,97,-99.99,,,-99.99,,2013-06-08 12:52:00,
2013-06-08 09:02:00,55.0,54.0,-100.00,NNW,330,7.0,14.0,98,-99.99,,,-99.99,,2013-06-08 13:02:00,
2013-06-08 09:12:00,55.0,55.0,-100.00,NNW,335,6.0,15.0,98,-99.99,,,-99.99,,2013-06-08 13:12:00,
2013-06-08 09:22:00,55.0,55.0,-100.00,NW,320,7.0,15.0,98,-99.99,,,-99.99,,2013-06-08 13:22:00,
2013-06-08 10:22:00,58.0,57.0,-100.00,NW,315,6.0,13.0,98,-99.99,,,-99.99,,2013-06-08 14:22:00,
2013-06-08 11:22:00,62.0,60.0,-100.00,NNW,335,8.0,15.0,94,-99.99,,,-99.99,,2013-06-08 15:22:00,
2013-06-08 11:33:00,63.0,59.0,-100.00,NW,310,7.0,15.0,89,-99.99,,,-99.99,,2013-06-08 15:33:00,
2013-06-08 11:43:00,63.0,59.0,-100.00,NW,310,7.0,15.0,89,-99.99,,,-99.99,,2013-06-08 15:43:00,
2013-06-08 11:53:00,64.0,59.0,-100.00,NW,305,3.0,12.0,84,-99.99,,,-99.99,,2013-06-08 15:53:00,
2013-06-08 12:03:00,66.0,60.0,-100.00,SW,235,2.0,10.0,83,-99.99,,,-99.99,,2013-06-08 16:03:00,
2013-06-08 12:12:00,66.0,59.0,-100.00,NW,310,5.0,13.0,78,-99.99,,,-99.99,,2013-06-08 16:12:00,
2013-06-08 12:23:00,68.0,60.0,-100.00,NW,310,5.0,12.0,77,-99.99,,,-99.99,,2013-06-08 16:23:00,
2013-06-08 12:33:00,69.0,60.0,-100.00,NW,320,7.0,14.0,73,-99.99,,,-99.99,,2013-06-08 16:33:00,
2013-06-08 12:42:00,69.0,60.0,-100.00,NW,320,7.0,14.0,73,-99.99,,,-99.99,,2013-06-08 16:42:00,
2013-06-08 12:53:00,70.0,60.0,-100.00,NW,310,5.0,13.0,71,-99.99,,,-99.99,,2013-06-08 16:53:00,
2013-06-08 13:02:00,70.0,59.0,-100.00,WNW,300,7.0,14.0,70,-99.99,,,-99.99,,2013-06-08 17:02:00,
2013-06-08 13:12:00,71.0,61.0,-100.00,NW,315,6.0,15.0,69,-99.99,,,-99.99,,2013-06-08 17:12:00,
2013-06-08 13:23:00,71.0,60.0,-100.00,WNW,300,7.0,13.0,69,-99.99,,,-99.99,,2013-06-08 17:23:00,
2013-06-08 13:32:00,73.0,60.0,-100.00,NW,310,5.0,12.0,64,-99.99,,,-99.99,,2013-06-08 17:32:00,
2013-06-08 13:42:00,73.0,60.0,-100.00,NW,310,5.0,12.0,64,-99.99,,,-99.99,,2013-06-08 17:42:00,
2013-06-08 13:52:00,75.0,62.0,-100.00,WSW,240,3.0,13.0,65,-99.99,,,-99.99,,2013-06-08 17:52:00,
2013-06-08 14:02:00,74.0,60.0,-100.00,WNW,295,6.0,16.0,62,-99.99,,,-99.99,,2013-06-08 18:02:00,
2013-06-08 14:22:00,74.0,60.0,-100.00,NW,305,9.0,17.0,62,-99.99,,,-99.99,,2013-06-08 18:22:00,
2013-06-08 14:32:00,76.0,63.0,-100.00,West,265,3.0,13.0,65,-99.99,,,-99.99,,2013-06-08 18:32:00,
2013-06-08 14:42:00,76.0,63.0,-100.00,West,265,3.0,13.0,65,-99.99,,,-99.99,,2013-06-08 18:42:00,
2013-06-08 14:52:00,76.0,63.0,-100.00,SW,215,3.0,10.0,63,-99.99,,,-99.99,,2013-06-08 18:52:00,
2013-06-08 15:03:00,76.0,62.0,-100.00,NW,325,5.0,10.0,62,-99.99,,,-99.99,,2013-06-08 19:03:00,
2013-06-08 15:22:00,76.0,63.0,-100.00,West,260,2.0,7.0,64,-99.99,,,-99.99,,2013-06-08 19:22:00,
2013-06-08 16:02:00,75.0,64.0,-100.00,South,185,2.0,10.0,68,-99.99,,,-99.99,,2013-06-08 20:02:00,
2013-06-08 16:12:00,77.0,65.0,-100.00,NW,305,2.0,7.0,66,-99.99,,,-99.99,,2013-06-08 20:12:00,
2013-06-08 16:22:00,78.0,61.0,-100.00,NW,305,2.0,15.0,57,-99.99,,,-99.99,,2013-06-08 20:22:00,
2013-06-08 16:32:00,78.0,62.0,-100.00,West,280,2.0,13.0,58,-99.99,,,-99.99,,2013-06-08 20:32:00,
2013-06-08 16:42:00,78.0,62.0,-100.00,West,280,2.0,13.0,58,-99.99,,,-99.99,,2013-06-08 20:42:00,
2013-06-08 16:52:00,78.0,62.0,-100.00,NW,325,5.0,10.0,57,-99.99,,,-99.99,,2013-06-08 20:52:00,
2013-06-08 17:02:00,78.0,62.0,-100.00,NW,325,5.0,10.0,57,-99.99,,,-99.99,,2013-06-08 21:02:00,
2013-06-08 17:13:00,78.0,62.0,-100.00,NW,325,5.0,10.0,57,-99.99,,,-99.99,,2013-06-08 21:13:00,
2013-06-08 17:22:00,79.0,62.0,-100.00,NW,305,5.0,9.0,57,-99.99,,,-99.99,,2013-06-08 21:22:00,
2013-06-08 17:33:00,77.0,62.0,-100.00,South,185,3.0,9.0,59,-99.99,,,-99.99,,2013-06-08 21:33:00,
2013-06-08 17:43:00,78.0,62.0,-100.00,SSW,200,3.0,8.0,59,-99.99,,,-99.99,,2013-06-08 21:43:00,
2013-06-08 17:53:00,75.0,63.0,-100.00,West,280,2.0,12.0,65,-99.99,,,-99.99,,2013-06-08 21:53:00,
2013-06-08 18:02:00,75.0,63.0,-100.00,West,280,2.0,12.0,65,-99.99,,,-99.99,,2013-06-08 22:02:00,
2013-06-08 18:12:00,77.0,63.0,-100.00,WNW,285,5.0,12.0,62,-99.99,,,-99.99,,2013-06-08 22:12:00,
2013-06-08 18:23:00,75.0,62.0,-100.00,WNW,285,5.0,12.0,65,-99.99,,,-99.99,,2013-06-08 22:23:00,
2013-06-08 18:33:00,75.0,61.0,-100.00,NW,305,7.0,17.0,63,-99.99,,,-99.99,,2013-06-08 22:33:00,
2013-06-08 18:42:00,74.0,62.0,-100.00,WNW,285,3.0,10.0,67,-99.99,,,-99.99,,2013-06-08 22:42:00,
2013-06-08 18:52:00,73.0,61.0,-100.00,NNW,330,2.0,9.0,66,-99.99,,,-99.99,,2013-06-08 22:52:00,
2013-06-08 19:02:00,73.0,61.0,-100.00,NNW,330,2.0,9.0,66,-99.99,,,-99.99,,2013-06-08 23:02:00,
2013-06-08 19:12:00,73.0,60.0,-100.00,NNW,330,5.0,9.0,64,-99.99,,,-99.99,,2013-06-08 23:12:00,
2013-06-08 19:22:00,73.0,60.0,-100.00,WNW,300,5.0,13.0,63,-99.99,,,-99.99,,2013-06-08 23:22:00,
2013-06-08 19:32:00,72.0,60.0,-100.00,NW,305,6.0,16.0,65,-99.99,,,-99.99,,2013-06-08 23:32:00,
2013-06-08 19:42:00,72.0,60.0,-100.00,NW,305,2.0,16.0,67,-99.99,,,-99.99,,2013-06-08 23:42:00,
2013-06-08 19:52:00,71.0,59.0,-100.00,WNW,300,5.0,13.0,67,-99.99,,,-99.99,,2013-06-08 23:52:00,
2013-06-08 20:02:00,71.0,59.0,-100.00,WNW,300,5.0,13.0,67,-99.99,,,-99.99,,2013-06-09 00:02:00,
2013-06-08 20:12:00,71.0,58.0,-100.00,WNW,300,6.0,13.0,64,-99.99,,,-99.99,,2013-06-09 00:12:00,
2013-06-08 20:22:00,71.0,57.0,-100.00,NW,310,6.0,16.0,63,-99.99,,,-99.99,,2013-06-09 00:22:00,
2013-06-08 20:42:00,69.0,59.0,-100.00,SW,230,2.0,6.0,70,-99.99,,,-99.99,,2013-06-09 00:42:00,
2013-06-08 21:12:00,65.0,58.0,-100.00,WSW,250,1.0,6.0,78,-99.99,,,-99.99,,2013-06-09 01:12:00,
2013-06-08 23:12:00,61.0,58.0,-100.00,South,180,0.0,5.0,91,-99.99,,,-99.99,,2013-06-09 03:12:00,